createdAt,value
2022-08-11T00:02:28.387Z,2.00
2022-08-11T00:04:57.440Z,2.30
2022-08-11T00:07:26.836Z,2.25
2022-08-11T00:09:54.796Z,2.05
2022-08-11T00:12:21.859Z,2.30
2022-08-11T00:14:58.157Z,2.20
2022-08-11T00:17:29.473Z,2.25
2022-08-11T00:20:13.344Z,2.05
2022-08-11T00:22:44.814Z,2.30
2022-08-11T00:25:19.544Z,2.00
2022-08-11T00:27:48.268Z,2.05
2022-08-11T00:30:16.412Z,2.17
2022-08-11T00:32:46.227Z,1.98
2022-08-11T00:35:54.344Z,2.25
2022-08-11T00:38:06.978Z,2.15
2022-08-11T00:40:48.579Z,2.17
2022-08-11T00:43:38.010Z,2.45
2022-08-11T00:46:27.560Z,2.25
2022-08-11T00:49:39.583Z,2.75
2022-08-11T00:52:25.055Z,2.00
2022-08-11T00:55:07.980Z,2.03
2022-08-11T00:57:55.627Z,2.00
2022-08-11T01:00:27.210Z,2.40
2022-08-11T01:06:05.377Z,2.38
2022-08-11T01:09:02.796Z,2.60
2022-08-11T01:12:06.298Z,2.13
2022-08-11T01:14:47.942Z,2.30
2022-08-11T01:17:26.741Z,2.60
2022-08-11T01:20:46.011Z,2.15
2022-08-11T01:23:53.050Z,2.35
2022-08-11T01:26:38.559Z,2.30
2022-08-11T01:29:08.006Z,2.15
2022-08-11T01:32:13.069Z,2.10
2022-08-11T01:35:10.542Z,2.63
2022-08-11T01:37:59.269Z,2.30
2022-08-11T01:41:08.385Z,2.38
2022-08-11T01:44:27.950Z,2.58
2022-08-11T01:47:34.680Z,2.53
2022-08-11T01:50:38.691Z,2.25
2022-08-11T01:53:24.067Z,1.98
2022-08-11T01:56:06.103Z,2.30
2022-08-11T01:59:00.426Z,2.35
2022-08-11T02:01:58.399Z,2.40
2022-08-11T02:04:56.150Z,2.33
2022-08-11T02:07:58.218Z,2.38
2022-08-11T02:13:20.839Z,2.00
2022-08-11T02:16:27.239Z,2.28
2022-08-11T02:19:36.064Z,2.33
2022-08-11T02:22:54.749Z,1.92
2022-08-11T02:25:34.570Z,2.30
2022-08-11T02:28:04.721Z,2.42
2022-08-11T02:30:40.912Z,1.83
2022-08-11T02:33:24.623Z,2.35
2022-08-11T02:36:00.365Z,2.13
2022-08-11T02:38:38.768Z,1.85
2022-08-11T02:41:42.555Z,1.90
2022-08-11T02:44:32.684Z,2.30
2022-08-11T02:47:06.823Z,2.58
2022-08-11T02:50:02.540Z,2.25
2022-08-11T02:53:13.123Z,2.25
2022-08-11T02:55:57.239Z,2.42
2022-08-11T02:58:44.310Z,2.08
2022-08-11T03:01:28.728Z,2.20
2022-08-11T03:04:09.092Z,2.53
2022-08-11T03:06:50.683Z,2.20
2022-08-11T03:09:36.126Z,2.50
2022-08-11T03:12:29.488Z,2.45
2022-08-11T03:15:22.043Z,2.53
2022-08-11T03:17:57.541Z,2.10
2022-08-11T03:20:33.232Z,2.33
2022-08-11T03:23:19.987Z,2.40
2022-08-11T03:25:55.839Z,2.08
2022-08-11T03:28:43.639Z,2.20
2022-08-11T03:31:19.901Z,2.78
2022-08-11T03:34:07.010Z,2.50
2022-08-11T03:37:16.170Z,2.22
2022-08-11T03:40:07.017Z,2.20
2022-08-11T03:42:55.895Z,2.20
2022-08-11T03:45:41.162Z,2.20
2022-08-11T03:48:29.543Z,2.22
2022-08-11T03:50:56.188Z,2.45
2022-08-11T03:53:22.900Z,2.45
2022-08-11T03:56:11.673Z,2.40
2022-08-11T03:58:56.652Z,2.50
2022-08-11T04:01:56.388Z,2.35
2022-08-11T04:04:51.320Z,2.45
2022-08-11T04:07:46.246Z,2.45
2022-08-11T04:10:42.066Z,2.72
2022-08-11T04:13:45.469Z,2.35
2022-08-11T04:16:38.360Z,2.55
2022-08-11T04:19:42.493Z,2.58
2022-08-11T04:22:40.467Z,2.17
2022-08-11T04:25:51.144Z,2.42
2022-08-11T04:28:49.875Z,2.30
2022-08-11T04:31:51.090Z,2.53
2022-08-11T04:34:09.388Z,2.35
2022-08-11T04:37:05.881Z,2.58
2022-08-11T04:40:00.518Z,2.45
2022-08-11T04:42:48.599Z,2.40
2022-08-11T04:45:27.068Z,2.40
2022-08-11T04:48:45.369Z,2.10
2022-08-11T04:51:51.881Z,2.20
2022-08-11T04:55:13.711Z,3.13
2022-08-11T04:58:17.642Z,2.45
2022-08-11T05:01:15.124Z,2.80
2022-08-11T05:04:28.124Z,2.53
2022-08-11T05:06:58.091Z,2.22
2022-08-11T05:09:49.307Z,2.28
2022-08-11T05:12:46.431Z,2.50
2022-08-11T05:15:42.597Z,2.60
2022-08-11T05:18:39.376Z,1.90
2022-08-11T05:21:29.457Z,2.50
2022-08-11T05:24:42.384Z,2.10
2022-08-11T05:27:33.267Z,2.45
2022-08-11T05:30:24.816Z,2.22
2022-08-11T05:33:40.163Z,2.22
2022-08-11T05:36:06.817Z,2.50
2022-08-11T05:38:54.746Z,2.30
2022-08-11T05:41:45.588Z,2.33
2022-08-11T05:44:37.736Z,2.60
2022-08-11T05:47:23.474Z,2.30
2022-08-11T05:50:13.758Z,2.60
2022-08-11T05:56:01.764Z,2.50
2022-08-11T05:58:41.157Z,2.45
2022-08-11T06:01:09.868Z,2.13
2022-08-11T06:03:58.036Z,2.40
2022-08-11T06:06:29.156Z,2.03
2022-08-11T06:08:58.089Z,2.50
2022-08-11T06:11:43.516Z,2.10
2022-08-11T06:14:12.260Z,2.47
2022-08-11T06:16:42.055Z,2.30
2022-08-11T06:19:09.932Z,2.63
2022-08-11T06:21:38.050Z,2.97
2022-08-11T06:24:11.911Z,2.50
2022-08-11T06:27:08.735Z,2.85
2022-08-11T06:29:37.613Z,2.60
2022-08-11T06:32:15.661Z,2.70
2022-08-11T06:35:04.060Z,2.75
2022-08-11T06:37:36.544Z,2.50
2022-08-11T06:40:11.715Z,2.65
2022-08-11T06:42:50.446Z,2.78
2022-08-11T06:45:54.664Z,2.58
2022-08-11T06:48:24.287Z,2.65
2022-08-11T06:51:12.200Z,2.63
2022-08-11T06:54:03.603Z,2.50
2022-08-11T06:57:12.112Z,2.47
2022-08-11T06:59:59.717Z,2.20
2022-08-11T07:02:52.089Z,2.67
2022-08-11T07:05:43.764Z,2.53
2022-08-11T07:08:59.846Z,2.50
2022-08-11T07:12:07.232Z,2.45
2022-08-11T07:14:58.246Z,2.35
2022-08-11T07:17:28.799Z,2.60
2022-08-11T07:20:19.546Z,2.42
2022-08-11T07:23:17.632Z,2.30
2022-08-11T07:26:09.115Z,2.50
2022-08-11T07:31:50.189Z,2.40
2022-08-11T07:34:28.132Z,2.53
2022-08-11T07:36:56.839Z,2.50
2022-08-11T07:39:27.922Z,2.30
2022-08-11T07:41:58.338Z,2.33
2022-08-11T07:44:34.252Z,2.20
2022-08-11T07:47:20.470Z,2.40
2022-08-11T07:50:08.830Z,2.60
2022-08-11T07:52:38.405Z,2.28
2022-08-11T07:55:13.871Z,2.42
2022-08-11T07:58:16.475Z,2.35
2022-08-11T08:01:21.235Z,2.50
2022-08-11T08:04:08.943Z,2.35
2022-08-11T08:06:56.557Z,2.30
2022-08-11T08:09:43.868Z,2.28
2022-08-11T08:12:31.281Z,2.40
2022-08-11T08:15:16.986Z,2.20
2022-08-11T08:18:09.799Z,2.80
2022-08-11T08:20:52.444Z,2.33
2022-08-11T08:23:35.112Z,2.38
2022-08-11T08:26:28.442Z,2.25
2022-08-11T08:29:16.680Z,2.10
2022-08-11T08:31:43.938Z,2.30
2022-08-11T08:34:11.403Z,2.20
2022-08-11T08:36:42.271Z,2.40
2022-08-11T08:39:09.129Z,2.00
2022-08-11T08:41:38.578Z,2.30
2022-08-11T08:44:35.081Z,2.00
2022-08-11T08:46:59.799Z,2.10
2022-08-11T08:49:34.187Z,1.98
2022-08-11T08:52:26.127Z,2.00
2022-08-11T08:54:58.176Z,1.95
2022-08-11T08:57:29.288Z,1.98
2022-08-11T09:02:34.171Z,1.90
2022-08-11T09:05:04.104Z,2.08
2022-08-11T09:07:38.999Z,1.92
2022-08-11T09:10:08.452Z,2.22
2022-08-11T09:12:38.798Z,2.10
2022-08-11T09:15:09.222Z,1.80
2022-08-11T09:17:40.460Z,2.30
2022-08-11T09:20:11.903Z,2.00
2022-08-11T09:23:54.520Z,1.80
2022-08-11T09:26:07.127Z,1.95
2022-08-11T09:28:35.860Z,1.90
2022-08-11T09:31:02.813Z,1.88
2022-08-11T09:33:31.746Z,2.28
2022-08-11T09:36:20.295Z,1.85
2022-08-11T09:39:06.137Z,1.70
2022-08-11T09:42:01.271Z,1.73
2022-08-11T09:44:40.810Z,1.48
2022-08-11T09:47:15.094Z,1.50
2022-08-11T09:49:46.105Z,1.63
2022-08-11T09:52:14.763Z,2.05
2022-08-11T09:54:47.998Z,1.90
2022-08-11T09:57:37.122Z,2.00
2022-08-11T10:00:12.657Z,1.80
2022-08-11T10:02:46.550Z,1.70
2022-08-11T10:05:36.070Z,1.80
2022-08-11T10:08:03.653Z,1.75
2022-08-11T10:10:35.461Z,1.73
2022-08-11T10:13:05.410Z,1.88
2022-08-11T10:16:14.641Z,1.70
2022-08-11T10:18:54.071Z,1.85
2022-08-11T10:21:29.143Z,1.80
2022-08-11T10:24:18.843Z,1.88
2022-08-11T10:26:54.684Z,1.80
2022-08-11T10:29:58.164Z,1.70
2022-08-11T10:32:57.512Z,1.80
2022-08-11T10:35:28.369Z,1.50
2022-08-11T10:38:16.043Z,1.50
2022-08-11T10:40:47.221Z,2.03
2022-08-11T10:44:01.378Z,1.80
2022-08-11T10:46:29.664Z,1.52
2022-08-11T10:48:58.897Z,2.00
2022-08-11T10:51:51.051Z,1.60
2022-08-11T10:54:39.320Z,1.85
2022-08-11T10:57:27.823Z,1.95
2022-08-11T10:59:56.207Z,1.98
2022-08-11T11:02:23.238Z,1.80
2022-08-11T11:04:58.501Z,1.90
2022-08-11T11:07:37.280Z,1.77
2022-08-11T11:10:11.000Z,1.73
2022-08-11T11:13:04.440Z,1.90
2022-08-11T11:15:53.659Z,2.17
2022-08-11T11:18:29.867Z,1.73
2022-08-11T11:21:06.232Z,1.48
2022-08-11T11:23:35.704Z,1.58
2022-08-11T11:26:10.995Z,1.70
2022-08-11T11:28:56.454Z,1.77
2022-08-11T11:31:44.469Z,1.50
2022-08-11T11:34:12.777Z,1.73
2022-08-11T11:36:49.022Z,1.88
2022-08-11T11:39:24.853Z,1.67
2022-08-11T11:41:55.645Z,1.58
2022-08-11T11:44:23.349Z,1.50
2022-08-11T11:46:51.267Z,1.40
2022-08-11T11:51:53.893Z,1.80
2022-08-11T11:54:31.362Z,1.60
2022-08-11T11:57:19.942Z,1.50
2022-08-11T12:00:08.864Z,1.73
2022-08-11T12:02:37.009Z,1.75
2022-08-11T12:05:05.272Z,1.77
2022-08-11T12:07:56.892Z,1.80
2022-08-11T12:10:39.417Z,1.80
2022-08-11T12:13:25.089Z,1.75
2022-08-11T12:16:32.824Z,1.65
2022-08-11T12:18:42.859Z,1.83
2022-08-11T12:21:10.824Z,1.60
2022-08-11T12:24:02.251Z,1.63
2022-08-11T12:27:01.403Z,1.60
2022-08-11T12:29:41.192Z,1.80
2022-08-11T12:32:11.132Z,1.80
2022-08-11T12:34:37.876Z,1.48
2022-08-11T12:37:08.694Z,1.70
2022-08-11T12:40:10.750Z,1.77
2022-08-11T12:42:58.694Z,1.90
2022-08-11T12:45:27.809Z,1.80
2022-08-11T12:48:57.512Z,1.70
2022-08-11T12:52:10.996Z,1.80
2022-08-11T12:54:34.547Z,1.40
2022-08-11T12:57:24.167Z,1.52
2022-08-11T13:00:25.533Z,1.90
2022-08-11T13:03:12.469Z,1.83
2022-08-11T13:05:44.533Z,1.60
2022-08-11T13:08:15.321Z,1.60
2022-08-11T13:11:03.578Z,1.77
2022-08-11T13:13:53.852Z,1.35
2022-08-11T13:16:20.819Z,1.35
2022-08-11T13:18:48.742Z,1.60
2022-08-11T13:21:19.945Z,1.73
2022-08-11T13:24:00.264Z,1.70
2022-08-11T13:26:46.745Z,1.88
2022-08-11T13:29:25.448Z,1.60
2022-08-11T13:31:56.170Z,1.50
2022-08-11T13:34:27.125Z,1.65
2022-08-11T13:36:57.142Z,1.70
2022-08-11T13:39:26.618Z,1.60
2022-08-11T13:41:56.659Z,1.60
2022-08-11T13:44:27.249Z,1.48
2022-08-11T13:47:02.536Z,1.70
2022-08-11T13:49:31.260Z,1.52
2022-08-11T13:51:59.346Z,1.70
2022-08-11T13:54:30.186Z,1.63
2022-08-11T13:57:03.229Z,1.90
2022-08-11T13:59:45.281Z,1.52
2022-08-11T14:02:29.209Z,1.70
2022-08-11T14:05:10.106Z,2.00
2022-08-11T14:07:46.372Z,1.50
2022-08-11T14:10:14.961Z,1.60
2022-08-11T14:13:09.402Z,1.60
2022-08-11T14:15:36.895Z,1.38
2022-08-11T14:18:05.478Z,1.65
2022-08-11T14:20:53.322Z,1.60
2022-08-11T14:23:28.816Z,1.70
2022-08-11T14:26:15.085Z,1.60
2022-08-11T14:28:45.042Z,1.70
2022-08-11T14:31:15.516Z,1.67
2022-08-11T14:33:59.688Z,1.63
2022-08-11T14:36:32.315Z,1.65
2022-08-11T14:42:09.834Z,1.80
2022-08-11T14:44:54.883Z,1.60
2022-08-11T14:47:25.413Z,2.00
2022-08-11T14:50:10.291Z,1.80
2022-08-11T14:52:41.204Z,1.70
2022-08-11T14:55:27.560Z,1.70
2022-08-11T14:57:56.983Z,1.50
2022-08-11T15:00:25.078Z,1.55
2022-08-11T15:03:12.626Z,1.52
2022-08-11T15:05:45.122Z,1.58
2022-08-11T15:08:46.207Z,1.70
2022-08-11T15:11:33.148Z,1.70
2022-08-11T15:14:02.364Z,1.70
2022-08-11T15:16:48.958Z,2.00
2022-08-11T15:19:19.626Z,1.55
2022-08-11T15:22:05.031Z,1.80
2022-08-11T15:24:33.726Z,1.63
2022-08-11T15:27:36.663Z,1.88
2022-08-11T15:30:32.491Z,1.75
2022-08-11T15:33:24.325Z,1.65
2022-08-11T15:36:11.729Z,1.80
2022-08-11T15:38:47.475Z,1.98
2022-08-11T15:41:36.376Z,1.80
2022-08-11T15:44:51.169Z,1.48
2022-08-11T15:47:16.010Z,1.52
2022-08-11T15:50:12.109Z,1.75
2022-08-11T15:52:43.594Z,1.83
2022-08-11T15:55:11.206Z,1.58
2022-08-11T15:57:57.731Z,1.50
2022-08-11T16:00:43.605Z,1.60
2022-08-11T16:04:06.465Z,2.00
2022-08-11T16:06:18.305Z,1.55
2022-08-11T16:08:45.998Z,1.75
2022-08-11T16:11:13.903Z,1.85
2022-08-11T16:13:40.956Z,1.90
2022-08-11T16:16:14.597Z,2.03
2022-08-11T16:18:56.599Z,2.08
2022-08-11T16:21:34.825Z,1.75
2022-08-11T16:24:08.222Z,1.60
2022-08-11T16:27:10.938Z,1.67
2022-08-11T16:29:31.950Z,1.60
2022-08-11T16:32:32.331Z,1.60
2022-08-11T16:35:26.378Z,1.60
2022-08-11T16:38:12.830Z,1.70
2022-08-11T16:40:41.709Z,1.60
2022-08-11T16:43:31.041Z,1.50
2022-08-11T16:46:18.150Z,1.52
2022-08-11T16:48:48.220Z,1.60
2022-08-11T16:51:15.739Z,1.80
2022-08-11T16:53:54.710Z,1.48
2022-08-11T16:56:35.614Z,1.58
2022-08-11T16:59:17.645Z,1.50
2022-08-11T17:02:12.683Z,1.52
2022-08-11T17:05:12.152Z,1.98
2022-08-11T17:08:01.314Z,1.45
2022-08-11T17:11:21.346Z,1.42
2022-08-11T17:14:03.946Z,1.40
2022-08-11T17:16:39.341Z,1.45
2022-08-11T17:19:18.461Z,1.52
2022-08-11T17:22:24.652Z,1.40
2022-08-11T17:24:51.824Z,1.67
2022-08-11T17:27:21.158Z,1.35
2022-08-11T17:29:54.893Z,1.63
2022-08-11T17:32:56.237Z,1.60
2022-08-11T17:35:31.146Z,1.60
2022-08-11T17:38:10.078Z,1.80
2022-08-11T17:40:39.509Z,2.00
2022-08-11T17:43:28.943Z,1.80
2022-08-11T17:46:16.304Z,1.80
2022-08-11T17:48:47.723Z,1.63
2022-08-11T17:51:39.429Z,1.70
2022-08-11T17:54:26.008Z,1.98
2022-08-11T17:57:20.297Z,2.00
2022-08-11T17:59:55.318Z,2.22
2022-08-11T18:03:01.214Z,2.10
2022-08-11T18:05:34.355Z,2.05
2022-08-11T18:08:23.580Z,2.13
2022-08-11T18:11:09.160Z,2.10
2022-08-11T18:13:57.055Z,2.03
2022-08-11T18:16:42.935Z,2.28
2022-08-11T18:19:30.903Z,2.17
2022-08-11T18:22:27.944Z,1.80
2022-08-11T18:25:20.247Z,1.90
2022-08-11T18:28:07.295Z,2.00
2022-08-11T18:31:03.484Z,1.70
2022-08-11T18:34:13.851Z,1.80
2022-08-11T18:37:21.769Z,2.10
2022-08-11T18:40:15.847Z,1.92
2022-08-11T18:43:03.892Z,1.88
2022-08-11T18:46:05.270Z,1.92
2022-08-11T18:48:54.125Z,2.30
2022-08-11T18:51:41.646Z,2.08
2022-08-11T18:54:29.989Z,1.98
2022-08-11T18:57:18.409Z,2.00
2022-08-11T19:00:06.032Z,1.95
2022-08-11T19:02:55.512Z,2.00
2022-08-11T19:06:31.815Z,2.00
2022-08-11T19:08:53.714Z,1.73
2022-08-11T19:11:42.636Z,1.77
2022-08-11T19:14:31.222Z,2.10
2022-08-11T19:17:44.683Z,2.20
2022-08-11T19:20:27.052Z,2.05
2022-08-11T19:23:14.991Z,2.00
2022-08-11T19:26:03.814Z,1.60
2022-08-11T19:28:50.670Z,1.80
2022-08-11T19:31:38.850Z,2.00
2022-08-11T19:34:28.707Z,1.80
2022-08-11T19:37:15.189Z,1.85
2022-08-11T19:40:01.332Z,2.03
2022-08-11T19:42:47.802Z,2.20
2022-08-11T19:45:34.834Z,2.00
2022-08-11T19:48:35.405Z,1.67
2022-08-11T19:51:20.965Z,1.90
2022-08-11T19:54:08.084Z,1.90
2022-08-11T19:56:55.266Z,1.90
2022-08-11T19:59:41.897Z,1.85
2022-08-11T20:02:28.582Z,1.60
2022-08-11T20:05:13.945Z,2.00
2022-08-11T20:07:59.827Z,1.83
2022-08-11T20:10:48.127Z,1.52
2022-08-11T20:13:34.576Z,1.70
2022-08-11T20:16:22.159Z,1.60
2022-08-11T20:19:09.640Z,1.77
2022-08-11T20:21:57.852Z,1.95
2022-08-11T20:24:43.676Z,1.70
2022-08-11T20:27:30.092Z,1.50
2022-08-11T20:30:18.039Z,1.90
2022-08-11T20:33:03.630Z,1.80
2022-08-11T20:35:51.980Z,1.70
2022-08-11T20:38:41.815Z,2.25
2022-08-11T20:41:30.289Z,1.67
2022-08-11T20:44:17.618Z,1.38
2022-08-11T20:47:05.105Z,1.50
2022-08-11T20:49:59.359Z,1.80
2022-08-11T20:52:48.990Z,2.00
2022-08-11T20:55:46.420Z,1.98
2022-08-11T21:01:45.551Z,1.77
2022-08-11T21:04:32.514Z,1.70
2022-08-11T21:07:28.507Z,1.90
2022-08-11T21:10:23.233Z,1.80
2022-08-11T21:13:26.116Z,1.73
2022-08-11T21:16:26.614Z,2.00
2022-08-11T21:19:59.872Z,1.50
2022-08-11T21:23:09.294Z,1.65
2022-08-11T21:26:06.591Z,1.70
2022-08-11T21:28:54.875Z,1.88
2022-08-11T21:31:42.291Z,1.67
2022-08-11T21:34:30.202Z,1.83
2022-08-11T21:37:18.889Z,1.67
2022-08-11T21:40:07.245Z,1.60
2022-08-11T21:42:56.205Z,1.60
2022-08-11T21:45:42.419Z,1.77
2022-08-11T21:48:30.383Z,1.77
2022-08-11T21:51:15.846Z,1.73
2022-08-11T21:54:01.842Z,2.05
2022-08-11T21:56:49.723Z,1.60
2022-08-11T21:59:40.825Z,1.38
2022-08-11T22:02:26.506Z,1.50
2022-08-11T22:05:12.537Z,1.60
2022-08-11T22:07:58.360Z,1.50
2022-08-11T22:10:43.486Z,1.92
2022-08-11T22:13:31.958Z,1.60
2022-08-11T22:16:19.174Z,1.60
2022-08-11T22:19:09.818Z,1.80
2022-08-11T22:22:01.527Z,1.80
2022-08-11T22:24:51.359Z,2.00
2022-08-11T22:27:36.802Z,1.60
2022-08-11T22:30:24.305Z,1.80
2022-08-11T22:33:10.172Z,1.60
2022-08-11T22:36:00.158Z,1.80
2022-08-11T22:38:46.087Z,1.60
2022-08-11T22:41:32.077Z,1.80
2022-08-11T22:44:17.268Z,1.45
2022-08-11T22:47:03.763Z,1.73
2022-08-11T22:49:57.293Z,2.10
2022-08-11T22:52:45.097Z,1.60
2022-08-11T22:55:31.800Z,1.50
2022-08-11T22:58:17.361Z,1.60
2022-08-11T23:01:02.897Z,1.75
2022-08-11T23:03:50.821Z,1.70
2022-08-11T23:06:38.137Z,1.70
2022-08-11T23:09:25.149Z,1.58
2022-08-11T23:12:10.819Z,1.63
2022-08-11T23:14:58.352Z,1.83
2022-08-11T23:17:45.313Z,1.63
2022-08-11T23:20:43.300Z,1.80
2022-08-11T23:23:38.199Z,1.80
2022-08-11T23:26:24.233Z,1.63
2022-08-11T23:29:11.205Z,2.00
2022-08-11T23:31:57.372Z,1.90
2022-08-11T23:35:04.497Z,1.80
2022-08-11T23:37:51.196Z,1.80
2022-08-11T23:40:36.642Z,1.77
2022-08-11T23:43:22.281Z,1.70
2022-08-11T23:46:08.814Z,1.80
2022-08-11T23:48:56.811Z,1.90
2022-08-11T23:51:44.325Z,1.60
2022-08-11T23:54:35.106Z,1.75
2022-08-11T23:57:22.918Z,1.63
